createdAt,value
2023-05-13T00:01:39.141Z,14.00
2023-05-13T00:04:09.896Z,14.83
2023-05-13T00:06:38.417Z,14.70
2023-05-13T00:09:06.846Z,15.70
2023-05-13T00:11:35.957Z,13.83
2023-05-13T00:14:04.320Z,13.90
2023-05-13T00:16:32.619Z,12.23
2023-05-13T00:19:00.795Z,12.43
2023-05-13T00:21:30.424Z,13.90
2023-05-13T00:23:58.891Z,12.43
2023-05-13T00:26:27.043Z,12.83
2023-05-13T00:28:55.277Z,12.20
2023-05-13T00:31:23.572Z,12.63
2023-05-13T00:33:52.046Z,11.77
2023-05-13T00:36:20.364Z,11.70
2023-05-13T00:38:52.185Z,13.03
2023-05-13T00:41:21.816Z,11.63
2023-05-13T00:43:50.238Z,11.87
2023-05-13T00:46:18.515Z,12.17
2023-05-13T00:48:46.860Z,11.47
2023-05-13T00:51:15.557Z,10.87
2023-05-13T00:53:44.399Z,11.10
2023-05-13T00:56:15.011Z,11.37
2023-05-13T00:58:43.175Z,10.70
2023-05-13T01:01:22.058Z,11.27
2023-05-13T01:04:11.112Z,11.50
2023-05-13T01:06:52.955Z,11.40
2023-05-13T01:09:35.063Z,10.73
2023-05-13T01:12:12.045Z,10.20
2023-05-13T01:14:50.779Z,11.77
2023-05-13T01:17:28.325Z,10.87
2023-05-13T01:20:02.047Z,10.27
2023-05-13T01:22:32.207Z,10.20
2023-05-13T01:25:00.938Z,9.77
2023-05-13T01:27:29.911Z,10.90
2023-05-13T01:29:58.777Z,10.07
2023-05-13T01:32:31.723Z,9.70
2023-05-13T01:35:00.743Z,10.10
2023-05-13T01:37:31.374Z,8.93
2023-05-13T01:39:59.977Z,9.97
2023-05-13T01:42:31.309Z,8.73
2023-05-13T01:44:59.719Z,8.97
2023-05-13T01:47:28.326Z,10.77
2023-05-13T01:49:57.189Z,9.37
2023-05-13T01:52:25.528Z,9.50
2023-05-13T01:54:55.849Z,9.50
2023-05-13T01:57:23.966Z,9.80
2023-05-13T01:59:53.060Z,10.07
2023-05-13T02:02:21.362Z,10.60
2023-05-13T02:04:49.947Z,10.00
2023-05-13T02:07:18.472Z,10.47
2023-05-13T02:09:48.143Z,10.80
2023-05-13T02:12:17.998Z,9.57
2023-05-13T02:14:46.246Z,10.27
2023-05-13T02:17:14.662Z,9.80
2023-05-13T02:19:43.844Z,10.67
2023-05-13T02:22:12.353Z,9.80
2023-05-13T02:24:40.824Z,9.80
2023-05-13T02:27:12.566Z,10.73
2023-05-13T02:29:42.295Z,10.40
2023-05-13T02:32:10.520Z,10.23
2023-05-13T02:34:38.832Z,8.77
2023-05-13T02:37:07.218Z,9.63
2023-05-13T02:39:41.777Z,10.03
2023-05-13T02:42:10.526Z,9.33
2023-05-13T02:44:38.752Z,9.50
2023-05-13T02:47:08.698Z,9.67
2023-05-13T02:49:37.065Z,9.40
2023-05-13T02:52:05.959Z,8.63
2023-05-13T02:54:36.485Z,9.53
2023-05-13T02:57:05.082Z,9.10
2023-05-13T02:59:33.384Z,9.00
2023-05-13T03:02:01.709Z,9.73
2023-05-13T03:04:31.307Z,8.90
2023-05-13T03:07:00.942Z,8.50
2023-05-13T03:09:29.117Z,9.63
2023-05-13T03:11:57.301Z,9.47
2023-05-13T03:14:25.863Z,10.20
2023-05-13T03:16:54.065Z,10.13
2023-05-13T03:19:22.345Z,10.40
2023-05-13T03:21:52.499Z,9.37
2023-05-13T03:24:21.040Z,11.60
2023-05-13T03:26:50.747Z,10.70
2023-05-13T03:29:18.957Z,10.80
2023-05-13T03:31:47.367Z,10.87
2023-05-13T03:34:15.715Z,11.97
2023-05-13T03:36:43.924Z,12.13
2023-05-13T03:39:13.797Z,12.83
2023-05-13T03:41:42.117Z,12.40
2023-05-13T03:44:10.282Z,12.27
2023-05-13T03:46:38.606Z,13.53
2023-05-13T03:49:07.257Z,12.00
2023-05-13T03:51:35.546Z,13.53
2023-05-13T03:54:04.238Z,12.37
2023-05-13T03:56:33.721Z,13.80
2023-05-13T03:59:02.919Z,14.80
2023-05-13T04:01:31.415Z,14.33
2023-05-13T04:03:59.579Z,14.93
2023-05-13T04:06:27.850Z,15.73
2023-05-13T04:08:56.068Z,16.17
2023-05-13T04:11:24.391Z,15.67
2023-05-13T04:13:53.900Z,16.50
2023-05-13T04:16:22.620Z,17.13
2023-05-13T04:18:51.046Z,18.30
2023-05-13T04:21:19.189Z,17.83
2023-05-13T04:23:47.594Z,19.70
2023-05-13T04:26:15.841Z,19.37
2023-05-13T04:28:44.563Z,19.00
2023-05-13T04:31:14.169Z,19.27
2023-05-13T04:33:42.445Z,19.50
2023-05-13T04:36:11.660Z,18.80
2023-05-13T04:38:41.272Z,18.10
2023-05-13T04:41:10.325Z,20.03
2023-05-13T04:43:43.533Z,18.67
2023-05-13T04:46:13.907Z,19.33
2023-05-13T04:48:42.883Z,18.93
2023-05-13T04:51:11.538Z,18.60
2023-05-13T04:53:40.262Z,18.90
2023-05-13T04:56:10.716Z,18.47
2023-05-13T04:58:39.276Z,18.50
2023-05-13T05:01:07.682Z,20.33
2023-05-13T05:03:37.304Z,20.30
2023-05-13T05:06:06.302Z,19.43
2023-05-13T05:08:34.765Z,20.23
2023-05-13T05:11:03.231Z,20.00
2023-05-13T05:13:33.389Z,20.23
2023-05-13T05:16:01.634Z,19.37
2023-05-13T05:18:31.746Z,19.80
2023-05-13T05:21:02.603Z,20.97
2023-05-13T05:23:31.274Z,20.80
2023-05-13T05:26:10.980Z,20.50
2023-05-13T05:28:44.766Z,20.67
2023-05-13T05:31:14.613Z,20.23
2023-05-13T05:33:43.076Z,19.97
2023-05-13T05:36:12.836Z,19.77
2023-05-13T05:38:41.843Z,20.60
2023-05-13T05:41:10.352Z,20.47
2023-05-13T05:43:38.730Z,21.00
2023-05-13T05:46:07.030Z,21.30
2023-05-13T05:48:36.472Z,20.30
2023-05-13T05:51:06.513Z,20.50
2023-05-13T05:53:40.904Z,22.50
2023-05-13T05:56:10.229Z,21.40
2023-05-13T05:58:39.190Z,22.00
2023-05-13T06:01:07.446Z,21.20
2023-05-13T06:03:35.717Z,20.90
2023-05-13T06:06:04.073Z,20.00
2023-05-13T06:08:32.501Z,20.73
2023-05-13T06:11:02.197Z,20.10
2023-05-13T06:13:30.462Z,19.07
2023-05-13T06:15:59.033Z,19.30
2023-05-13T06:18:27.837Z,20.20
2023-05-13T06:20:58.214Z,20.93
2023-05-13T06:23:26.414Z,19.50
2023-05-13T06:25:54.972Z,19.37
2023-05-13T06:28:24.495Z,18.83
2023-05-13T06:30:53.861Z,19.43
2023-05-13T06:33:22.212Z,19.70
2023-05-13T06:35:50.854Z,18.73
2023-05-13T06:38:22.070Z,17.93
2023-05-13T06:40:53.429Z,20.20
2023-05-13T06:43:29.495Z,19.00
2023-05-13T06:46:00.980Z,18.90
2023-05-13T06:48:29.724Z,18.53
2023-05-13T06:50:59.596Z,18.77
2023-05-13T06:53:27.834Z,18.63
2023-05-13T06:55:56.030Z,18.60
2023-05-13T06:58:24.308Z,18.27
2023-05-13T07:00:53.913Z,20.77
2023-05-13T07:03:23.026Z,18.23
2023-05-13T07:05:51.285Z,18.30
2023-05-13T07:08:19.773Z,18.50
2023-05-13T07:10:47.938Z,18.77
2023-05-13T07:13:16.512Z,17.80
2023-05-13T07:15:45.695Z,16.97
2023-05-13T07:18:15.474Z,17.10
2023-05-13T07:20:43.806Z,17.77
2023-05-13T07:23:12.001Z,17.73
2023-05-13T07:25:41.169Z,17.77
2023-05-13T07:28:09.449Z,16.53
2023-05-13T07:30:40.539Z,17.00
2023-05-13T07:33:08.975Z,16.87
2023-05-13T07:35:38.629Z,16.47
2023-05-13T07:38:09.917Z,16.93
2023-05-13T07:40:38.328Z,16.80
2023-05-13T07:43:06.795Z,16.33
2023-05-13T07:45:35.048Z,15.77
2023-05-13T07:48:03.356Z,15.70
2023-05-13T07:50:31.731Z,15.17
2023-05-13T07:53:01.175Z,14.40
2023-05-13T07:55:29.416Z,14.23
2023-05-13T07:57:59.063Z,13.00
2023-05-13T08:00:27.467Z,12.10
2023-05-13T08:02:56.497Z,12.93
2023-05-13T08:05:25.601Z,12.53
2023-05-13T08:07:53.855Z,12.33
2023-05-13T08:10:23.590Z,11.27
2023-05-13T08:12:58.537Z,12.60
2023-05-13T08:15:28.554Z,12.33
2023-05-13T08:17:57.037Z,12.53
2023-05-13T08:20:30.023Z,11.67
2023-05-13T08:22:58.728Z,11.83
2023-05-13T08:25:28.410Z,11.47
2023-05-13T08:27:56.833Z,11.80
2023-05-13T08:30:25.114Z,11.57
2023-05-13T08:32:53.329Z,12.70
2023-05-13T08:35:22.134Z,12.07
2023-05-13T08:37:51.526Z,11.47
2023-05-13T08:40:21.198Z,11.37
2023-05-13T08:42:54.774Z,11.63
2023-05-13T08:45:23.851Z,11.63
2023-05-13T08:47:57.261Z,12.47
2023-05-13T08:50:26.965Z,11.70
2023-05-13T08:52:58.576Z,11.43
2023-05-13T08:55:27.722Z,10.60
2023-05-13T08:57:57.638Z,11.00
2023-05-13T09:00:27.506Z,10.90
2023-05-13T09:02:55.920Z,9.80
2023-05-13T09:05:25.322Z,11.30
2023-05-13T09:07:55.019Z,11.13
2023-05-13T09:10:23.323Z,10.37
2023-05-13T09:12:53.720Z,10.87
2023-05-13T09:15:25.316Z,10.37
2023-05-13T09:17:57.875Z,11.17
2023-05-13T09:20:26.823Z,9.87
2023-05-13T09:22:59.077Z,10.20
2023-05-13T09:25:27.955Z,10.67
2023-05-13T09:28:00.163Z,10.13
2023-05-13T09:30:35.252Z,9.43
2023-05-13T09:33:19.767Z,10.30
2023-05-13T09:35:52.960Z,9.73
2023-05-13T09:38:22.946Z,9.63
2023-05-13T09:40:52.888Z,9.93
2023-05-13T09:43:23.075Z,9.53
2023-05-13T09:45:57.252Z,9.40
2023-05-13T09:48:28.638Z,8.90
2023-05-13T09:50:58.386Z,9.97
2023-05-13T09:53:29.015Z,9.70
2023-05-13T09:56:00.294Z,8.77
2023-05-13T09:58:31.138Z,9.77
2023-05-13T10:01:01.435Z,9.90
2023-05-13T10:03:31.863Z,9.90
2023-05-13T10:06:03.100Z,9.70
2023-05-13T10:08:34.474Z,10.00
2023-05-13T10:11:04.121Z,8.50
2023-05-13T10:13:35.261Z,9.17
2023-05-13T10:16:11.510Z,8.33
2023-05-13T10:18:40.167Z,9.57
2023-05-13T10:21:08.645Z,10.27
2023-05-13T10:23:37.017Z,9.17
2023-05-13T10:26:07.524Z,8.40
2023-05-13T10:28:36.510Z,9.27
2023-05-13T10:31:05.100Z,8.90
2023-05-13T10:33:35.096Z,9.37
2023-05-13T10:36:46.321Z,9.70
2023-05-13T10:39:41.409Z,8.60
2023-05-13T10:42:41.391Z,8.90
2023-05-13T10:45:10.332Z,8.53
2023-05-13T10:47:39.605Z,9.57
2023-05-13T10:50:25.126Z,10.17
2023-05-13T10:52:58.537Z,9.77
2023-05-13T10:55:28.581Z,9.30
2023-05-13T10:58:12.198Z,9.80
2023-05-13T11:00:42.353Z,10.07
2023-05-13T11:03:16.635Z,10.53
2023-05-13T11:05:59.474Z,10.67
2023-05-13T11:08:41.735Z,10.20
2023-05-13T11:11:33.268Z,9.57
2023-05-13T11:14:17.636Z,9.80
2023-05-13T11:16:54.129Z,10.03
2023-05-13T11:19:27.296Z,10.88
2023-05-13T11:21:59.453Z,11.10
2023-05-13T11:24:29.218Z,10.80
2023-05-13T11:27:00.209Z,11.10
2023-05-13T11:29:31.447Z,9.40
2023-05-13T11:32:01.618Z,10.83
2023-05-13T11:34:30.566Z,14.23
2023-05-13T11:37:12.151Z,13.30
2023-05-13T11:39:42.207Z,13.17
2023-05-13T11:42:12.040Z,14.07
2023-05-13T11:44:47.923Z,15.60
2023-05-13T11:47:16.137Z,13.50
2023-05-13T11:49:46.692Z,14.10
2023-05-13T11:52:18.004Z,13.40
2023-05-13T11:54:49.584Z,13.03
2023-05-13T11:57:23.377Z,12.47
2023-05-13T11:59:58.726Z,14.60
2023-05-13T12:02:29.262Z,13.03
2023-05-13T12:05:01.408Z,14.50
2023-05-13T12:07:31.981Z,13.40
2023-05-13T12:10:01.895Z,14.13
2023-05-13T12:12:32.886Z,13.00
2023-05-13T12:15:04.006Z,14.37
2023-05-13T12:17:34.228Z,13.87
2023-05-13T12:20:11.448Z,14.77
2023-05-13T12:22:57.373Z,14.00
2023-05-13T12:25:46.788Z,13.90
2023-05-13T12:28:17.712Z,14.77
2023-05-13T12:30:53.362Z,14.77
2023-05-13T12:33:23.418Z,13.27
2023-05-13T12:35:54.100Z,13.73
2023-05-13T12:38:25.653Z,13.80
2023-05-13T12:40:55.166Z,14.63
2023-05-13T12:43:24.244Z,13.60
2023-05-13T12:45:57.748Z,13.10
2023-05-13T12:48:26.889Z,13.10
2023-05-13T12:50:56.561Z,13.37
2023-05-13T12:53:26.446Z,13.17
2023-05-13T12:55:54.627Z,12.00
2023-05-13T12:58:22.861Z,12.20
2023-05-13T13:00:51.597Z,11.67
2023-05-13T13:03:22.414Z,11.40
2023-05-13T13:05:53.120Z,11.00
2023-05-13T13:08:21.805Z,12.50
2023-05-13T13:10:52.462Z,13.53
2023-05-13T13:13:20.671Z,10.63
2023-05-13T13:15:48.983Z,9.57
2023-05-13T13:18:17.375Z,11.83
2023-05-13T13:20:45.874Z,9.80
2023-05-13T13:23:14.325Z,9.43
2023-05-13T13:25:42.595Z,10.60
2023-05-13T13:28:12.397Z,10.27
2023-05-13T13:30:46.260Z,7.97
2023-05-13T13:33:16.431Z,9.40
2023-05-13T13:35:45.946Z,11.43
2023-05-13T13:38:14.640Z,10.77
2023-05-13T13:40:42.989Z,8.97
2023-05-13T13:43:12.681Z,8.80
2023-05-13T13:45:40.923Z,9.17
2023-05-13T13:48:09.260Z,9.23
2023-05-13T13:50:37.460Z,9.90
2023-05-13T13:53:05.767Z,8.00
2023-05-13T13:55:34.053Z,9.20
2023-05-13T13:58:02.401Z,8.30
2023-05-13T14:00:32.474Z,6.80
2023-05-13T14:03:02.571Z,6.60
2023-05-13T14:05:31.135Z,6.50
2023-05-13T14:07:59.299Z,6.87
2023-05-13T14:10:27.530Z,8.73
2023-05-13T14:12:55.737Z,8.03
2023-05-13T14:15:24.367Z,8.73
2023-05-13T14:17:53.936Z,8.30
2023-05-13T14:20:23.853Z,8.43
2023-05-13T14:22:53.451Z,8.50
2023-05-13T14:25:21.690Z,6.90
2023-05-13T14:27:50.036Z,6.33
2023-05-13T14:30:18.386Z,6.03
2023-05-13T14:32:47.259Z,6.73
2023-05-13T14:35:18.826Z,7.07
2023-05-13T14:37:47.040Z,7.30
2023-05-13T14:40:15.345Z,7.13
2023-05-13T14:42:43.613Z,7.00
2023-05-13T14:45:15.334Z,6.77
2023-05-13T14:47:45.172Z,7.40
2023-05-13T14:50:15.208Z,6.80
2023-05-13T14:52:45.088Z,6.33
2023-05-13T14:55:13.474Z,6.57
2023-05-13T14:57:41.863Z,7.47
2023-05-13T15:00:12.017Z,6.80
2023-05-13T15:02:40.436Z,7.80
2023-05-13T15:05:10.024Z,7.23
2023-05-13T15:07:38.294Z,7.30
2023-05-13T15:10:09.243Z,7.40
2023-05-13T15:12:37.590Z,6.97
2023-05-13T15:15:07.587Z,6.90
2023-05-13T15:17:35.826Z,6.70
2023-05-13T15:20:04.514Z,7.10
2023-05-13T15:22:34.104Z,7.13
2023-05-13T15:25:02.568Z,8.10
2023-05-13T15:27:32.249Z,7.20
2023-05-13T15:30:00.424Z,6.40
2023-05-13T15:32:28.648Z,6.40
2023-05-13T15:34:57.388Z,6.37
2023-05-13T15:37:25.868Z,7.00
2023-05-13T15:39:55.777Z,6.10
2023-05-13T15:42:24.238Z,7.03
2023-05-13T15:44:53.747Z,6.10
2023-05-13T15:47:21.961Z,6.40
2023-05-13T15:49:51.281Z,6.63
2023-05-13T15:52:19.507Z,7.00
2023-05-13T15:54:47.680Z,7.47
2023-05-13T15:57:18.136Z,7.70
2023-05-13T15:59:46.458Z,7.10
2023-05-13T16:02:18.412Z,8.00
2023-05-13T16:04:46.758Z,7.30
2023-05-13T16:07:15.928Z,8.60
2023-05-13T16:09:44.215Z,7.80
2023-05-13T16:12:12.394Z,7.57
2023-05-13T16:14:40.507Z,7.80
2023-05-13T16:17:08.725Z,8.20
2023-05-13T16:19:38.315Z,7.93
2023-05-13T16:22:30.336Z,7.60
2023-05-13T16:25:01.700Z,7.47
2023-05-13T16:27:30.870Z,7.40
2023-05-13T16:30:01.293Z,10.10
2023-05-13T16:32:30.305Z,9.03
2023-05-13T16:35:01.393Z,8.83
2023-05-13T16:37:30.098Z,9.00
2023-05-13T16:39:58.752Z,7.40
2023-05-13T16:42:27.154Z,7.70
2023-05-13T16:44:55.763Z,7.27
2023-05-13T16:47:23.982Z,7.10
2023-05-13T16:49:52.341Z,6.83
2023-05-13T16:52:21.930Z,7.17
2023-05-13T16:54:50.516Z,7.30
2023-05-13T16:57:22.281Z,7.87
2023-05-13T16:59:50.573Z,7.43
2023-05-13T17:02:18.766Z,7.00
2023-05-13T17:04:46.979Z,7.50
2023-05-13T17:07:15.502Z,8.00
2023-05-13T17:09:45.674Z,7.20
2023-05-13T17:12:13.819Z,6.90
2023-05-13T17:14:41.928Z,7.47
2023-05-13T17:17:10.342Z,6.90
2023-05-13T17:19:38.591Z,6.83
2023-05-13T17:22:06.992Z,6.87
2023-05-13T17:24:35.382Z,6.80
2023-05-13T17:27:05.072Z,6.63
2023-05-13T17:29:34.414Z,6.47
2023-05-13T17:32:02.551Z,6.87
2023-05-13T17:34:30.667Z,6.53
2023-05-13T17:36:58.917Z,6.93
2023-05-13T17:39:27.062Z,6.77
2023-05-13T17:41:55.645Z,7.03
2023-05-13T17:44:25.248Z,8.00
2023-05-13T17:46:53.477Z,6.87
2023-05-13T17:49:21.644Z,6.83
2023-05-13T17:51:50.049Z,7.37
2023-05-13T17:54:18.247Z,7.80
2023-05-13T17:56:46.469Z,8.27
2023-05-13T17:59:14.650Z,7.17
2023-05-13T18:01:44.195Z,7.10
2023-05-13T18:04:12.375Z,7.80
2023-05-13T18:06:40.746Z,10.80
2023-05-13T18:09:09.800Z,9.33
2023-05-13T18:11:38.182Z,8.10
2023-05-13T18:14:06.874Z,8.10
2023-05-13T18:16:35.200Z,11.80
2023-05-13T18:19:06.091Z,8.20
2023-05-13T18:21:34.313Z,7.20
2023-05-13T18:24:02.518Z,7.97
2023-05-13T18:26:30.754Z,8.50
2023-05-13T18:28:58.992Z,8.10
2023-05-13T18:31:27.690Z,8.17
2023-05-13T18:33:56.015Z,8.23
2023-05-13T18:36:26.248Z,8.40
2023-05-13T18:38:54.544Z,8.10
2023-05-13T18:41:22.703Z,7.47
2023-05-13T18:43:51.537Z,8.63
2023-05-13T18:46:20.020Z,8.70
2023-05-13T18:48:48.296Z,8.37
2023-05-13T18:51:16.868Z,7.90
2023-05-13T18:53:46.877Z,9.03
2023-05-13T18:56:15.157Z,8.90
2023-05-13T18:58:45.807Z,9.17
2023-05-13T19:01:15.474Z,9.30
2023-05-13T19:03:43.961Z,9.90
2023-05-13T19:06:13.070Z,10.63
2023-05-13T19:08:41.271Z,10.00
2023-05-13T19:11:11.420Z,10.80
2023-05-13T19:13:47.304Z,10.60
2023-05-13T19:16:16.418Z,10.00
2023-05-13T19:18:44.749Z,10.60
2023-05-13T19:21:13.020Z,10.63
2023-05-13T19:23:41.306Z,11.17
2023-05-13T19:26:10.944Z,11.60
2023-05-13T19:28:40.260Z,11.90
2023-05-13T19:31:08.513Z,11.50
2023-05-13T19:33:37.368Z,11.70
2023-05-13T19:36:06.526Z,11.10
2023-05-13T19:38:36.077Z,12.37
2023-05-13T19:41:04.677Z,11.90
2023-05-13T19:43:34.396Z,12.80
2023-05-13T19:46:02.836Z,12.10
2023-05-13T19:48:31.398Z,12.70
2023-05-13T19:51:00.042Z,13.00
2023-05-13T19:53:28.338Z,13.87
2023-05-13T19:55:56.936Z,14.00
2023-05-13T19:58:25.532Z,14.33
2023-05-13T20:00:56.433Z,14.17
2023-05-13T20:03:24.718Z,15.30
2023-05-13T20:05:54.031Z,15.40
2023-05-13T20:08:23.070Z,15.47
2023-05-13T20:10:51.481Z,14.50
2023-05-13T20:13:20.111Z,15.77
2023-05-13T20:15:48.273Z,15.40
2023-05-13T20:18:17.860Z,15.90
2023-05-13T20:20:47.063Z,16.20
2023-05-13T20:23:15.344Z,16.50
2023-05-13T20:25:43.469Z,16.40
2023-05-13T20:28:11.932Z,16.50
2023-05-13T20:30:42.646Z,17.73
2023-05-13T20:33:10.869Z,18.00
2023-05-13T20:35:40.942Z,18.20
2023-05-13T20:38:09.096Z,18.23
2023-05-13T20:40:37.678Z,19.50
2023-05-13T20:43:07.689Z,19.40
2023-05-13T20:45:39.664Z,18.87
2023-05-13T20:48:09.008Z,17.90
2023-05-13T20:50:37.830Z,19.30
2023-05-13T20:53:07.463Z,20.07
2023-05-13T20:55:35.729Z,19.87
2023-05-13T20:58:03.938Z,21.00
2023-05-13T21:00:32.089Z,21.63
2023-05-13T21:03:00.843Z,20.77
2023-05-13T21:05:29.283Z,22.00
2023-05-13T21:07:59.903Z,22.40
2023-05-13T21:10:29.581Z,23.20
2023-05-13T21:12:57.786Z,22.00
2023-05-13T21:15:26.159Z,23.23
2023-05-13T21:17:54.561Z,24.20
2023-05-13T21:20:23.204Z,23.80
2023-05-13T21:22:51.716Z,23.03
2023-05-13T21:25:20.114Z,24.90
2023-05-13T21:27:50.463Z,25.90
2023-05-13T21:30:18.921Z,26.33
2023-05-13T21:32:47.145Z,25.93
2023-05-13T21:35:15.796Z,26.67
2023-05-13T21:37:45.904Z,27.80
2023-05-13T21:40:15.854Z,28.63
2023-05-13T21:42:44.010Z,27.00
2023-05-13T21:45:15.184Z,25.70
2023-05-13T21:47:43.408Z,26.87
2023-05-13T21:50:12.534Z,27.20
2023-05-13T21:52:40.900Z,27.77
2023-05-13T21:55:10.315Z,27.97
2023-05-13T21:57:38.615Z,27.97
2023-05-13T22:00:10.742Z,26.87
2023-05-13T22:02:46.115Z,30.70
2023-05-13T22:05:14.591Z,30.53
2023-05-13T22:07:43.064Z,30.23
2023-05-13T22:10:12.452Z,29.50
2023-05-13T22:12:41.220Z,30.47
2023-05-13T22:15:11.167Z,29.70
2023-05-13T22:17:39.475Z,30.60
2023-05-13T22:20:10.524Z,33.57
2023-05-13T22:22:38.848Z,31.83
2023-05-13T22:25:07.735Z,31.53
2023-05-13T22:27:36.495Z,32.60
2023-05-13T22:30:05.571Z,33.00
2023-05-13T22:32:34.413Z,31.50
2023-05-13T22:35:03.100Z,31.77
2023-05-13T22:37:32.693Z,32.00
2023-05-13T22:40:01.467Z,29.87
2023-05-13T22:42:29.746Z,32.07
2023-05-13T22:44:58.212Z,29.63
2023-05-13T22:47:26.547Z,31.93
2023-05-13T22:50:01.938Z,30.37
2023-05-13T22:52:30.057Z,31.23
2023-05-13T22:55:00.168Z,32.47
2023-05-13T22:57:28.648Z,30.47
2023-05-13T22:59:57.001Z,30.83
2023-05-13T23:02:25.392Z,31.10
2023-05-13T23:04:54.437Z,30.90
2023-05-13T23:07:22.653Z,29.20
2023-05-13T23:09:53.275Z,31.57
2023-05-13T23:12:22.738Z,31.70
2023-05-13T23:14:51.182Z,31.77
2023-05-13T23:17:19.332Z,31.50
2023-05-13T23:19:47.594Z,33.40
2023-05-13T23:22:15.846Z,30.40
2023-05-13T23:24:44.198Z,30.93
2023-05-13T23:27:12.621Z,31.60
2023-05-13T23:29:43.037Z,33.50
2023-05-13T23:32:11.315Z,31.90
2023-05-13T23:34:39.708Z,34.40
2023-05-13T23:37:08.023Z,34.30
2023-05-13T23:39:36.194Z,35.10
2023-05-13T23:42:04.707Z,36.27
2023-05-13T23:44:32.956Z,34.47
2023-05-13T23:47:02.571Z,36.80
2023-05-13T23:49:30.859Z,35.80
2023-05-13T23:52:00.530Z,33.70
2023-05-13T23:54:28.721Z,34.80
2023-05-13T23:56:57.166Z,34.40
2023-05-13T23:59:25.398Z,35.97
